createdAt,value
2022-11-29T00:00:02.727Z,3.86
2022-11-29T00:03:25.733Z,3.86
2022-11-29T00:06:47.298Z,3.68
2022-11-29T00:10:09.397Z,3.59
2022-11-29T00:13:33.898Z,3.58
2022-11-29T00:17:02.863Z,3.56
2022-11-29T00:20:26.874Z,3.62
2022-11-29T00:23:50.751Z,3.34
2022-11-29T00:27:12.361Z,3.31
2022-11-29T00:30:33.991Z,3.30
2022-11-29T00:33:57.039Z,3.13
2022-11-29T00:37:18.606Z,3.31
2022-11-29T00:40:44.727Z,3.45
2022-11-29T00:44:06.388Z,3.52
2022-11-29T00:47:27.961Z,3.56
2022-11-29T00:50:49.502Z,3.52
2022-11-29T00:54:11.054Z,3.52
2022-11-29T00:57:32.745Z,3.52
2022-11-29T01:00:54.786Z,3.46
2022-11-29T01:04:18.658Z,3.24
2022-11-29T01:07:40.286Z,3.14
2022-11-29T01:11:13.094Z,3.18
2022-11-29T01:14:37.161Z,3.20
2022-11-29T01:18:03.467Z,3.21
2022-11-29T01:21:24.990Z,3.24
2022-11-29T01:24:46.770Z,3.14
2022-11-29T01:28:08.369Z,3.07
2022-11-29T01:31:36.406Z,2.94
2022-11-29T01:34:57.894Z,3.03
2022-11-29T01:38:22.523Z,3.08
2022-11-29T01:41:44.041Z,3.18
2022-11-29T01:45:18.190Z,3.18
2022-11-29T01:48:39.760Z,3.21
2022-11-29T01:52:11.279Z,3.24
2022-11-29T01:55:33.496Z,3.27
2022-11-29T01:58:55.271Z,3.28
2022-11-29T02:02:41.574Z,3.27
2022-11-29T02:06:04.557Z,3.24
2022-11-29T02:09:26.131Z,3.18
2022-11-29T02:13:03.080Z,3.18
2022-11-29T02:16:40.736Z,3.14
2022-11-29T02:20:20.591Z,3.15
2022-11-29T02:24:29.826Z,3.18
2022-11-29T02:28:06.410Z,3.24
2022-11-29T02:31:40.046Z,3.20
2022-11-29T02:35:13.008Z,2.96
2022-11-29T02:38:34.496Z,3.21
2022-11-29T02:42:04.977Z,3.36
2022-11-29T02:45:38.635Z,3.25
2022-11-29T02:49:19.770Z,3.31
2022-11-29T02:52:52.749Z,3.56
2022-11-29T02:56:38.289Z,3.55
2022-11-29T03:00:05.048Z,3.56
2022-11-29T03:03:48.185Z,3.45
2022-11-29T03:07:39.096Z,3.43
2022-11-29T03:11:16.498Z,3.41
2022-11-29T03:15:31.816Z,3.43
2022-11-29T03:19:19.546Z,3.39
2022-11-29T03:22:55.172Z,3.34
2022-11-29T03:26:25.888Z,3.42
2022-11-29T03:30:02.686Z,3.38
2022-11-29T03:33:45.772Z,3.38
2022-11-29T03:37:19.031Z,3.43
2022-11-29T03:40:52.366Z,3.43
2022-11-29T03:44:25.360Z,3.46
2022-11-29T03:48:09.336Z,3.46
2022-11-29T03:51:48.927Z,3.54
2022-11-29T03:55:20.028Z,3.52
2022-11-29T03:59:23.178Z,3.45
2022-11-29T04:03:32.534Z,3.32
2022-11-29T04:07:02.950Z,3.21
2022-11-29T04:10:36.541Z,3.18
2022-11-29T04:14:07.532Z,3.22
2022-11-29T04:17:47.347Z,3.17
2022-11-29T04:21:50.310Z,3.22
2022-11-29T04:25:41.937Z,3.34
2022-11-29T04:29:22.292Z,3.31
2022-11-29T04:33:26.116Z,3.21
2022-11-29T04:37:15.828Z,3.24
2022-11-29T04:41:04.229Z,3.25
2022-11-29T04:44:40.893Z,3.30
2022-11-29T04:48:11.532Z,3.20
2022-11-29T04:52:06.793Z,3.13
2022-11-29T04:55:43.171Z,3.13
2022-11-29T04:59:29.192Z,3.15
2022-11-29T05:02:57.794Z,3.21
2022-11-29T05:06:29.090Z,3.27
2022-11-29T05:10:24.371Z,3.22
2022-11-29T05:13:45.861Z,3.21
2022-11-29T05:17:26.628Z,3.24
2022-11-29T05:20:56.926Z,3.10
2022-11-29T05:24:25.115Z,3.04
2022-11-29T05:27:52.843Z,3.11
2022-11-29T05:31:23.772Z,3.20
2022-11-29T05:35:03.941Z,3.15
2022-11-29T05:38:45.166Z,3.14
2022-11-29T05:42:21.849Z,3.11
2022-11-29T05:45:47.688Z,3.18
2022-11-29T05:49:18.170Z,3.14
2022-11-29T05:53:10.383Z,3.21
2022-11-29T05:56:53.793Z,3.59
2022-11-29T06:00:18.432Z,4.08
2022-11-29T06:03:45.170Z,4.38
2022-11-29T06:07:19.824Z,4.66
2022-11-29T06:10:57.671Z,4.72
2022-11-29T06:14:44.207Z,4.49
2022-11-29T06:18:18.351Z,4.20
2022-11-29T06:22:11.597Z,3.89
2022-11-29T06:26:05.108Z,3.61
2022-11-29T06:29:36.787Z,3.54
2022-11-29T06:33:18.925Z,3.32
2022-11-29T06:36:58.600Z,3.41
2022-11-29T06:40:20.203Z,3.38
2022-11-29T06:43:42.049Z,3.35
2022-11-29T06:47:13.502Z,3.32
2022-11-29T06:50:55.409Z,3.36
2022-11-29T06:54:43.335Z,3.34
2022-11-29T06:58:10.975Z,3.25
2022-11-29T07:01:53.573Z,3.20
2022-11-29T07:05:26.598Z,3.31
2022-11-29T07:08:55.345Z,3.20
2022-11-29T07:12:17.996Z,3.24
2022-11-29T07:16:07.291Z,3.39
2022-11-29T07:19:31.883Z,3.46
2022-11-29T07:23:24.812Z,3.49
2022-11-29T07:27:12.636Z,3.58
2022-11-29T07:30:57.711Z,3.58
2022-11-29T07:34:44.836Z,3.45
2022-11-29T07:38:36.474Z,3.48
2022-11-29T07:42:06.896Z,3.56
2022-11-29T07:45:29.916Z,3.63
2022-11-29T07:48:53.822Z,3.69
2022-11-29T07:52:16.723Z,3.76
2022-11-29T07:55:38.421Z,3.72
2022-11-29T07:58:59.995Z,3.73
2022-11-29T08:02:31.702Z,3.73
2022-11-29T08:05:53.429Z,4.90
2022-11-29T08:09:17.259Z,5.41
2022-11-29T08:12:46.155Z,5.68
2022-11-29T08:16:07.763Z,5.79
2022-11-29T08:19:29.330Z,5.37
2022-11-29T08:23:00.093Z,4.87
2022-11-29T08:26:29.735Z,4.55
2022-11-29T08:29:52.980Z,4.37
2022-11-29T08:33:14.482Z,4.21
2022-11-29T08:36:36.550Z,4.01
2022-11-29T08:39:58.978Z,3.99
2022-11-29T08:43:23.185Z,3.99
2022-11-29T08:47:05.689Z,3.86
2022-11-29T08:50:29.786Z,3.78
2022-11-29T08:53:51.698Z,3.79
2022-11-29T08:57:39.388Z,3.79
2022-11-29T09:00:57.416Z,3.82
2022-11-29T09:04:21.416Z,3.85
2022-11-29T09:07:43.437Z,3.80
2022-11-29T09:11:13.325Z,3.63
2022-11-29T09:14:34.922Z,3.62
2022-11-29T09:17:57.233Z,3.78
2022-11-29T09:21:22.237Z,4.45
2022-11-29T09:24:44.297Z,4.93
2022-11-29T09:28:06.154Z,5.38
2022-11-29T09:31:29.314Z,5.62
2022-11-29T09:34:53.381Z,5.92
2022-11-29T09:38:17.115Z,5.93
2022-11-29T09:42:11.107Z,5.50
2022-11-29T09:45:38.597Z,5.20
2022-11-29T09:49:12.558Z,4.95
2022-11-29T09:52:47.290Z,4.86
2022-11-29T09:56:34.115Z,4.83
2022-11-29T10:00:01.637Z,4.85
2022-11-29T10:03:28.065Z,4.83
2022-11-29T10:06:58.674Z,4.76
2022-11-29T10:10:29.258Z,4.73
2022-11-29T10:13:56.692Z,4.82
2022-11-29T10:17:41.943Z,4.83
2022-11-29T10:21:19.379Z,5.03
2022-11-29T10:24:45.365Z,4.96
2022-11-29T10:28:14.711Z,4.96
2022-11-29T10:31:43.258Z,5.34
2022-11-29T10:35:15.472Z,5.14
2022-11-29T10:38:37.393Z,5.16
2022-11-29T10:42:02.501Z,5.09
2022-11-29T10:45:30.647Z,5.16
2022-11-29T10:48:53.418Z,5.12
2022-11-29T10:52:23.060Z,5.12
2022-11-29T10:56:08.806Z,5.13
2022-11-29T10:59:32.977Z,5.58
2022-11-29T11:02:54.677Z,6.09
2022-11-29T11:06:22.676Z,6.44
2022-11-29T11:09:49.477Z,6.57
2022-11-29T11:13:29.115Z,6.81
2022-11-29T11:16:50.856Z,6.78
2022-11-29T11:20:23.930Z,6.44
2022-11-29T11:23:54.537Z,6.17
2022-11-29T11:27:31.905Z,5.79
2022-11-29T11:31:08.608Z,5.62
2022-11-29T11:34:35.993Z,5.51
2022-11-29T11:37:57.676Z,5.54
2022-11-29T11:41:23.520Z,5.43
2022-11-29T11:44:50.535Z,5.23
2022-11-29T11:48:17.602Z,5.37
2022-11-29T11:51:44.093Z,5.44
2022-11-29T11:55:20.862Z,5.45
2022-11-29T11:58:53.220Z,5.38
2022-11-29T12:02:36.584Z,5.37
2022-11-29T12:06:08.219Z,5.28
2022-11-29T12:09:41.744Z,5.43
2022-11-29T12:13:04.585Z,5.61
2022-11-29T12:16:34.829Z,5.55
2022-11-29T12:20:09.326Z,5.50
2022-11-29T12:23:30.811Z,5.65
2022-11-29T12:26:58.543Z,5.98
2022-11-29T12:30:23.898Z,6.31
2022-11-29T12:34:03.030Z,6.63
2022-11-29T12:37:46.319Z,6.75
2022-11-29T12:41:22.717Z,6.82
2022-11-29T12:44:44.616Z,6.51
2022-11-29T12:48:34.715Z,6.21
2022-11-29T12:52:20.446Z,5.95
2022-11-29T12:56:00.346Z,5.85
2022-11-29T12:59:39.708Z,5.65
2022-11-29T13:03:39.440Z,5.55
2022-11-29T13:07:16.195Z,5.43
2022-11-29T13:10:52.555Z,5.45
2022-11-29T13:14:43.401Z,5.45
2022-11-29T13:18:17.067Z,5.54
2022-11-29T13:22:02.940Z,5.55
2022-11-29T13:25:33.874Z,5.51
2022-11-29T13:28:55.805Z,5.50
2022-11-29T13:32:30.332Z,5.47
2022-11-29T13:36:23.615Z,5.51
2022-11-29T13:39:51.231Z,5.48
2022-11-29T13:43:24.679Z,5.65
2022-11-29T13:47:18.662Z,5.69
2022-11-29T13:50:43.754Z,6.17
2022-11-29T13:54:29.649Z,6.61
2022-11-29T13:58:15.312Z,6.84
2022-11-29T14:01:53.978Z,7.02
2022-11-29T14:05:30.843Z,7.15
2022-11-29T14:09:17.665Z,6.89
2022-11-29T14:12:53.642Z,6.59
2022-11-29T14:16:27.143Z,6.37
2022-11-29T14:19:48.882Z,6.16
2022-11-29T14:23:16.831Z,5.92
2022-11-29T14:26:38.395Z,5.82
2022-11-29T14:30:02.448Z,5.61
2022-11-29T14:33:29.534Z,5.59
2022-11-29T14:37:04.146Z,5.43
2022-11-29T14:40:31.836Z,5.30
2022-11-29T14:44:22.070Z,5.20
2022-11-29T14:47:50.149Z,5.20
2022-11-29T14:51:16.961Z,5.07
2022-11-29T14:55:02.202Z,5.04
2022-11-29T14:58:23.828Z,5.01
2022-11-29T15:01:46.053Z,4.90
2022-11-29T15:05:20.143Z,5.41
2022-11-29T15:09:14.734Z,5.82
2022-11-29T15:12:37.778Z,6.23
2022-11-29T15:16:10.677Z,6.41
2022-11-29T15:19:53.961Z,6.65
2022-11-29T15:23:18.592Z,6.47
2022-11-29T15:26:55.446Z,6.16
2022-11-29T15:30:38.464Z,5.83
2022-11-29T15:34:00.081Z,5.56
2022-11-29T15:37:25.071Z,5.43
2022-11-29T15:40:54.702Z,5.30
2022-11-29T15:44:22.235Z,5.17
2022-11-29T15:47:45.994Z,5.07
2022-11-29T15:51:22.575Z,5.04
2022-11-29T15:54:51.458Z,4.99
2022-11-29T15:58:15.927Z,4.83
2022-11-29T16:01:39.373Z,4.86
2022-11-29T16:05:16.273Z,4.95
2022-11-29T16:08:41.995Z,6.14
2022-11-29T16:12:07.483Z,6.41
2022-11-29T16:15:33.129Z,6.85
2022-11-29T16:18:56.934Z,6.92
2022-11-29T16:22:24.268Z,7.02
2022-11-29T16:26:00.917Z,6.93
2022-11-29T16:29:36.406Z,6.65
2022-11-29T16:33:03.482Z,5.85
2022-11-29T16:36:26.801Z,5.69
2022-11-29T16:39:50.785Z,5.54
2022-11-29T16:43:24.065Z,5.45
2022-11-29T16:46:48.647Z,5.43
2022-11-29T16:50:21.560Z,5.30
2022-11-29T16:53:47.738Z,5.22
2022-11-29T16:57:09.404Z,5.44
2022-11-29T17:00:32.833Z,5.89
2022-11-29T17:03:59.586Z,6.30
2022-11-29T17:07:30.885Z,6.57
2022-11-29T17:10:55.184Z,6.77
2022-11-29T17:14:16.691Z,6.91
2022-11-29T17:17:38.648Z,7.05
2022-11-29T17:21:02.358Z,7.10
2022-11-29T17:24:24.835Z,7.06
2022-11-29T17:27:46.393Z,6.72
2022-11-29T17:31:12.987Z,6.21
2022-11-29T17:34:36.837Z,5.93
2022-11-29T17:37:58.775Z,5.75
2022-11-29T17:41:28.209Z,5.48
2022-11-29T17:44:49.798Z,5.17
2022-11-29T17:48:11.291Z,5.17
2022-11-29T17:51:53.733Z,5.19
2022-11-29T17:55:20.832Z,5.16
2022-11-29T17:58:45.237Z,5.43
2022-11-29T18:02:11.918Z,6.05
2022-11-29T18:05:34.911Z,6.51
2022-11-29T18:08:58.720Z,6.69
2022-11-29T18:12:20.401Z,6.89
2022-11-29T18:15:44.909Z,6.95
2022-11-29T18:19:09.562Z,6.99
2022-11-29T18:22:33.390Z,7.02
2022-11-29T18:26:00.032Z,6.85
2022-11-29T18:29:23.869Z,6.50
2022-11-29T18:32:45.426Z,6.20
2022-11-29T18:36:11.000Z,5.90
2022-11-29T18:39:32.556Z,5.76
2022-11-29T18:42:54.078Z,5.27
2022-11-29T18:46:20.092Z,5.30
2022-11-29T18:49:41.671Z,5.31
2022-11-29T18:53:04.250Z,5.16
2022-11-29T18:56:28.723Z,5.24
2022-11-29T18:59:50.290Z,5.19
2022-11-29T19:03:11.804Z,5.72
2022-11-29T19:06:39.180Z,6.59
2022-11-29T19:10:01.118Z,7.05
2022-11-29T19:13:25.343Z,7.40
2022-11-29T19:16:50.092Z,7.37
2022-11-29T19:20:12.125Z,7.23
2022-11-29T19:23:34.199Z,7.09
2022-11-29T19:26:59.271Z,7.13
2022-11-29T19:30:20.887Z,6.64
2022-11-29T19:33:44.807Z,6.29
2022-11-29T19:37:09.124Z,6.03
2022-11-29T19:40:32.793Z,5.81
2022-11-29T19:43:57.222Z,5.63
2022-11-29T19:47:18.749Z,5.48
2022-11-29T19:50:40.264Z,5.59
2022-11-29T19:54:05.137Z,5.95
2022-11-29T19:57:26.711Z,6.26
2022-11-29T20:00:50.504Z,6.45
2022-11-29T20:04:13.715Z,6.69
2022-11-29T20:07:35.340Z,6.69
2022-11-29T20:11:13.970Z,6.74
2022-11-29T20:14:35.733Z,6.74
2022-11-29T20:17:57.264Z,6.71
2022-11-29T20:21:21.744Z,6.67
2022-11-29T20:24:45.664Z,6.69
2022-11-29T20:28:09.899Z,6.69
2022-11-29T20:31:33.012Z,6.42
2022-11-29T20:34:55.186Z,6.11
2022-11-29T20:38:49.885Z,5.72
2022-11-29T20:42:29.607Z,5.50
2022-11-29T20:45:53.895Z,5.22
2022-11-29T20:49:17.342Z,5.12
2022-11-29T20:52:44.576Z,5.04
2022-11-29T20:56:07.133Z,5.07
2022-11-29T20:59:28.608Z,4.99
2022-11-29T21:02:50.196Z,4.92
2022-11-29T21:06:16.356Z,4.85
2022-11-29T21:09:38.033Z,4.86
2022-11-29T21:13:02.363Z,4.93
2022-11-29T21:16:31.093Z,4.87
2022-11-29T21:19:53.110Z,4.86
2022-11-29T21:23:25.483Z,4.80
2022-11-29T21:26:51.507Z,4.77
2022-11-29T21:30:21.814Z,4.75
2022-11-29T21:33:46.690Z,4.73
2022-11-29T21:37:10.754Z,4.83
2022-11-29T21:40:32.263Z,4.80
2022-11-29T21:44:09.225Z,4.82
2022-11-29T21:47:31.779Z,4.76
2022-11-29T21:50:53.329Z,4.75
2022-11-29T21:54:15.991Z,4.71
2022-11-29T21:57:40.206Z,4.66
2022-11-29T22:01:16.830Z,4.71
2022-11-29T22:04:44.406Z,4.71
2022-11-29T22:08:08.466Z,4.62
2022-11-29T22:11:34.516Z,4.66
2022-11-29T22:14:59.126Z,4.64
2022-11-29T22:18:20.814Z,4.65
2022-11-29T22:21:44.165Z,4.54
2022-11-29T22:25:08.315Z,4.64
2022-11-29T22:28:29.801Z,4.65
2022-11-29T22:31:55.881Z,4.65
2022-11-29T22:35:17.419Z,4.69
2022-11-29T22:38:39.849Z,4.64
2022-11-29T22:42:01.337Z,4.68
2022-11-29T22:45:25.608Z,4.66
2022-11-29T22:48:51.594Z,4.65
2022-11-29T22:52:13.138Z,4.65
2022-11-29T22:55:34.658Z,4.65
2022-11-29T22:58:56.454Z,4.65
2022-11-29T23:02:20.104Z,4.62
2022-11-29T23:05:41.691Z,4.65
2022-11-29T23:09:06.923Z,4.65
2022-11-29T23:12:28.559Z,4.59
2022-11-29T23:15:51.071Z,4.58
2022-11-29T23:19:12.788Z,4.51
2022-11-29T23:22:38.678Z,4.59
2022-11-29T23:26:01.346Z,4.56
2022-11-29T23:29:27.498Z,4.61
2022-11-29T23:32:51.364Z,4.65
2022-11-29T23:36:16.560Z,4.65
2022-11-29T23:39:38.106Z,4.69
2022-11-29T23:42:59.660Z,4.69
2022-11-29T23:46:25.683Z,4.71
2022-11-29T23:49:47.229Z,4.75
2022-11-29T23:53:12.441Z,4.73
2022-11-29T23:56:35.505Z,4.73
2022-11-29T23:59:57.423Z,4.68
